Time;durP1;ratioP1;P1;durP2;ratioP2;P2;SDS_P1;SDS_P2;PMS_P1;PMS_P2;Temp;Humidity;BMP_temperature;BMP_pressure;BME280_temperature;BME280_humidity;BME280_pressure;Samples;Min_cycle;Max_cycle;Signal;HPM_P1;HPM_P2
2022/11/11 00:00:33;;;;;;;9.43;7.63;;;6.30;99.90;;;;;;5072970;28;20622;-52
2022/11/11 00:03:00;;;;;;;9.23;8.13;;;6.20;99.90;;;;;;5074513;28;20274;-51
2022/11/11 00:05:28;;;;;;;8.03;7.13;;;6.10;99.90;;;;;;5064861;28;20306;-51
2022/11/11 00:07:58;;;;;;;6.97;6.37;;;6.10;99.90;;;;;;5062860;28;20682;-51
2022/11/11 00:10:25;;;;;;;8.10;7.33;;;6.20;99.90;;;;;;5054192;28;20207;-52
2022/11/11 00:12:52;;;;;;;8.63;7.13;;;6.20;99.90;;;;;;5063803;28;20269;-51
2022/11/11 00:15:19;;;;;;;8.77;7.73;;;6.20;99.90;;;;;;5074324;28;20297;-51
2022/11/11 00:26:06;;;;;;;8.07;7.17;;;6.10;99.90;;;;;;5052668;28;20693;-52
2022/11/11 00:28:33;;;;;;;8.47;6.53;;;6.10;99.90;;;;;;5054130;28;20240;-52
2022/11/11 00:31:04;;;;;;;7.53;6.93;;;6.10;99.90;;;;;;5055541;28;20676;-51
2022/11/11 00:33:33;;;;;;;11.23;7.13;;;6.10;99.90;;;;;;5065493;28;20628;-51
2022/11/11 00:35:59;;;;;;;7.77;6.43;;;6.20;99.90;;;;;;5074098;28;20260;-51
2022/11/11 00:38:45;;;;;;;9.47;6.80;;;6.10;99.90;;;;;;5069872;28;20219;-50
2022/11/11 00:41:13;;;;;;;7.03;6.40;;;6.10;99.90;;;;;;5055777;28;20199;-51
2022/11/11 00:43:40;;;;;;;8.33;6.60;;;6.10;99.90;;;;;;5060030;28;20202;-51
2022/11/11 00:51:39;;;;;;;7.13;6.30;;;6.10;99.90;;;;;;5074346;28;20229;-52
2022/11/11 00:54:06;;;;;;;6.50;5.90;;;6.10;99.90;;;;;;5062269;28;20250;-51
2022/11/11 00:56:35;;;;;;;5.53;5.13;;;6.10;99.90;;;;;;5044029;28;20261;-51
2022/11/11 00:59:02;;;;;;;6.40;5.83;;;6.00;99.90;;;;;;5033835;28;20209;-51
2022/11/11 01:01:29;;;;;;;5.70;5.20;;;6.00;99.90;;;;;;5033937;28;20213;-51
2022/11/11 01:03:58;;;;;;;6.40;5.73;;;5.90;99.90;;;;;;5033897;28;20532;-51
2022/11/11 01:06:25;;;;;;;6.93;6.40;;;5.90;99.90;;;;;;5039114;28;20232;-51
2022/11/11 01:08:53;;;;;;;6.93;6.33;;;5.90;99.90;;;;;;5050439;28;20618;-51
2022/11/11 01:11:23;;;;;;;7.70;7.00;;;5.90;99.90;;;;;;5059424;28;20410;-51
2022/11/11 01:13:50;;;;;;;6.43;5.93;;;5.90;99.90;;;;;;5073231;28;20204;-50
2022/11/11 01:16:19;;;;;;;6.50;5.80;;;5.80;99.90;;;;;;5073591;28;20283;-51
2022/11/11 01:18:46;;;;;;;6.43;5.73;;;5.80;99.90;;;;;;5073653;28;20230;-51
2022/11/11 01:21:17;;;;;;;6.70;6.07;;;5.80;99.90;;;;;;5051738;28;20207;-51
2022/11/11 01:23:45;;;;;;;5.73;5.30;;;5.80;99.90;;;;;;5061072;28;20673;-51
2022/11/11 01:26:15;;;;;;;5.80;5.40;;;5.80;99.90;;;;;;5053276;28;20724;-51
2022/11/11 01:28:42;;;;;;;4.90;4.60;;;5.80;99.90;;;;;;5061858;28;20203;-51
2022/11/11 01:31:12;;;;;;;5.10;4.80;;;5.80;99.90;;;;;;5073130;28;20206;-51
2022/11/11 01:33:40;;;;;;;4.60;4.30;;;5.80;99.90;;;;;;5057038;28;20207;-51
2022/11/11 01:36:09;;;;;;;5.60;5.13;;;5.80;99.90;;;;;;5060881;28;20293;-51
2022/11/11 01:38:39;;;;;;;4.83;4.43;;;5.80;99.90;;;;;;5052725;28;20772;-51
2022/11/11 01:43:55;;;;;;;6.43;4.83;;;5.80;99.90;;;;;;5066809;28;20267;-51
2022/11/11 01:46:31;;;;;;;5.17;4.07;;;5.70;99.90;;;;;;5060561;28;20256;-51
2022/11/11 01:49:21;;;;;;;4.83;4.47;;;5.70;99.90;;;;;;5065395;28;20256;-51
2022/11/11 01:51:55;;;;;;;4.57;4.23;;;5.60;99.90;;;;;;5070801;28;20673;-51
2022/11/11 01:54:29;;;;;;;3.93;3.60;;;5.50;99.90;;;;;;5072534;28;20698;-52
2022/11/11 01:57:02;;;;;;;6.33;4.23;;;5.60;99.90;;;;;;5066801;28;20214;-51
2022/11/11 01:59:31;;;;;;;4.67;4.37;;;5.60;99.90;;;;;;5060701;28;20202;-51
2022/11/11 02:01:59;;;;;;;4.73;4.43;;;5.50;99.90;;;;;;5054252;28;20589;-51
2022/11/11 02:07:11;;;;;;;3.63;3.43;;;5.50;99.90;;;;;;5072278;28;20202;-51
2022/11/11 02:09:45;;;;;;;3.67;3.40;;;5.40;99.90;;;;;;5063041;28;20202;-51
2022/11/11 02:14:59;;;;;;;4.60;3.77;;;5.50;99.90;;;;;;5052293;28;20751;-51
2022/11/11 02:17:29;;;;;;;4.63;4.33;;;5.50;99.90;;;;;;5059796;28;20265;-51
2022/11/11 02:20:00;;;;;;;5.27;4.77;;;5.50;99.90;;;;;;5070297;28;20195;-51
2022/11/11 02:22:34;;;;;;;4.37;4.17;;;5.50;99.90;;;;;;5068386;28;20203;-51
2022/11/11 02:25:05;;;;;;;5.30;4.77;;;5.40;99.90;;;;;;5051786;28;20287;-51
2022/11/11 02:27:36;;;;;;;4.43;4.13;;;5.40;99.90;;;;;;5052127;28;20282;-51
2022/11/11 02:30:06;;;;;;;4.93;4.60;;;5.40;99.90;;;;;;5050073;28;20203;-50
2022/11/11 02:32:33;;;;;;;4.87;4.47;;;5.50;99.90;;;;;;5051773;28;20304;-51
2022/11/11 02:35:00;;;;;;;3.90;3.70;;;5.50;99.90;;;;;;5050870;28;20225;-51
2022/11/11 02:37:27;;;;;;;5.13;4.00;;;5.50;99.90;;;;;;5059002;28;20228;-51
2022/11/11 02:40:00;;;;;;;4.43;4.13;;;5.40;99.90;;;;;;5070649;28;20203;-51
2022/11/11 02:42:28;;;;;;;3.93;3.73;;;5.40;99.90;;;;;;5071888;28;20249;-51
2022/11/11 02:44:57;;;;;;;3.80;3.50;;;5.40;99.90;;;;;;5049699;28;20699;-51
2022/11/11 02:47:26;;;;;;;4.67;3.50;;;5.40;99.90;;;;;;5051316;28;20253;-53
2022/11/11 02:49:53;;;;;;;3.93;3.73;;;5.50;99.90;;;;;;5059044;28;20209;-52
2022/11/11 02:52:20;;;;;;;4.60;4.30;;;5.50;99.90;;;;;;5051829;28;20277;-51
2022/11/11 02:54:48;;;;;;;4.20;3.33;;;5.40;99.90;;;;;;5050889;28;20273;-51
2022/11/11 02:57:15;;;;;;;3.83;3.63;;;5.40;99.90;;;;;;5055173;28;20207;-50
2022/11/11 02:59:43;;;;;;;4.53;3.57;;;5.40;99.90;;;;;;5051244;28;20203;-51
2022/11/11 03:02:10;;;;;;;4.77;4.47;;;5.30;99.90;;;;;;5061874;28;20213;-51
2022/11/11 03:04:37;;;;;;;3.53;3.30;;;5.20;99.90;;;;;;5067572;28;20282;-51
2022/11/11 03:07:05;;;;;;;3.83;3.57;;;5.10;99.90;;;;;;5071277;28;20196;-51
2022/11/11 03:09:32;;;;;;;3.77;3.47;;;5.10;99.90;;;;;;5071019;28;20349;-51
2022/11/11 03:11:59;;;;;;;3.30;3.10;;;5.00;99.90;;;;;;5048762;28;20354;-51
2022/11/11 03:14:26;;;;;;;3.60;3.40;;;5.00;99.90;;;;;;5057518;28;20288;-51
2022/11/11 03:19:39;;;;;;;3.77;3.57;;;4.90;99.90;;;;;;5051098;28;20214;-51
2022/11/11 03:22:05;;;;;;;4.37;4.07;;;4.90;99.90;;;;;;5050877;28;20216;-52
2022/11/11 03:27:13;;;;;;;3.50;3.30;;;4.80;99.90;;;;;;5047016;28;20566;-51
2022/11/11 03:29:40;;;;;;;4.70;4.40;;;4.80;99.90;;;;;;5067625;28;20348;-52
2022/11/11 03:32:09;;;;;;;4.20;3.90;;;4.80;99.90;;;;;;5067248;28;20237;-51
2022/11/11 03:34:36;;;;;;;4.40;4.07;;;4.80;99.90;;;;;;5061411;28;20224;-51
2022/11/11 03:39:48;;;;;;;4.73;3.53;;;4.80;99.90;;;;;;5047324;28;20211;-51
2022/11/11 03:42:15;;;;;;;3.73;3.53;;;4.80;99.90;;;;;;5050531;28;20201;-51
2022/11/11 03:44:42;;;;;;;4.70;4.27;;;4.80;99.90;;;;;;5050177;28;20235;-51
2022/11/11 03:47:11;;;;;;;4.60;4.17;;;4.90;99.90;;;;;;5050590;28;20207;-51
2022/11/11 03:49:38;;;;;;;4.10;3.80;;;4.90;99.90;;;;;;5050694;28;20209;-51
2022/11/11 03:52:05;;;;;;;4.07;3.80;;;4.90;99.90;;;;;;5055716;28;20256;-52
2022/11/11 03:54:32;;;;;;;4.90;4.57;;;4.90;99.90;;;;;;5059599;28;20231;-51
2022/11/11 03:59:40;;;;;;;4.40;4.00;;;4.80;99.90;;;;;;5048092;28;20232;-51
2022/11/11 04:10:30;;;;;;;5.03;4.53;;;4.70;99.90;;;;;;5049105;28;20280;-52
2022/11/11 04:23:58;;;;;;;3.97;3.60;;;4.70;99.90;;;;;;5038340;28;20195;-51
2022/11/11 04:26:24;;;;;;;6.23;3.93;;;4.60;99.90;;;;;;5039067;28;20281;-52
2022/11/11 04:31:36;;;;;;;5.73;4.27;;;4.60;99.90;;;;;;5043316;28;20560;-51
2022/11/11 04:34:03;;;;;;;5.13;3.47;;;4.60;99.90;;;;;;5033848;28;20245;-51
2022/11/11 04:36:30;;;;;;;3.27;3.07;;;4.60;99.90;;;;;;5031198;28;20288;-51
2022/11/11 04:41:41;;;;;;;3.93;3.50;;;4.60;99.90;;;;;;5044270;28;20687;-52
2022/11/11 04:46:53;;;;;;;4.57;3.33;;;4.60;99.90;;;;;;5050664;28;20293;-51
2022/11/11 04:49:26;;;;;;;3.03;2.63;;;4.60;99.90;;;;;;5049331;28;20203;-51
2022/11/11 04:56:46;;;;;;;3.07;2.80;;;4.60;99.90;;;;;;5034066;28;20228;-51
2022/11/11 04:57:23;;;;;;;3.03;2.83;;;4.60;99.90;;;;;;5043772;28;20366;-51
2022/11/11 04:59:50;;;;;;;3.30;3.00;;;4.50;99.90;;;;;;5044612;28;20292;-51
2022/11/11 05:05:04;;;;;;;2.90;2.70;;;4.50;99.90;;;;;;5036717;28;20270;-51
2022/11/11 05:10:15;;;;;;;3.87;3.07;;;4.50;99.90;;;;;;5051377;28;20215;-51
2022/11/11 05:12:42;;;;;;;7.13;3.73;;;4.50;99.90;;;;;;5048593;28;20267;-51
2022/11/11 05:23:21;;;;;;;5.03;4.13;;;4.60;99.90;;;;;;5050487;28;20211;-52
2022/11/11 05:25:47;;;;;;;4.03;3.70;;;4.60;99.90;;;;;;5038325;28;20227;-51
2022/11/11 05:28:14;;;;;;;5.30;4.13;;;4.50;99.90;;;;;;5050614;28;20264;-53
2022/11/11 05:30:42;;;;;;;5.30;4.90;;;4.50;99.90;;;;;;5050491;28;20197;-51
2022/11/11 05:33:08;;;;;;;6.40;5.73;;;4.50;99.90;;;;;;5052164;28;20205;-51
2022/11/11 05:35:37;;;;;;;5.43;4.83;;;4.50;99.90;;;;;;5065021;28;20230;-51
2022/11/11 05:38:22;;;;;;;5.13;4.73;;;4.40;99.90;;;;;;5054620;28;20224;-51
2022/11/11 05:40:49;;;;;;;6.57;5.97;;;4.40;99.90;;;;;;5057959;28;20287;-51
2022/11/11 05:43:16;;;;;;;6.00;5.00;;;4.40;99.90;;;;;;5060444;28;20207;-51
2022/11/11 05:45:43;;;;;;;5.60;4.57;;;4.50;99.90;;;;;;5082984;22;20289;-48
2022/11/11 05:48:10;;;;;;;4.07;3.77;;;4.40;99.90;;;;;;5038229;28;20196;-48
2022/11/11 05:50:41;;;;;;;5.07;4.63;;;4.40;99.90;;;;;;5033411;28;20200;-48
2022/11/11 05:53:08;;;;;;;5.00;4.50;;;4.40;99.90;;;;;;5050241;28;20208;-47
2022/11/11 05:55:35;;;;;;;5.67;4.80;;;4.40;99.90;;;;;;5052975;28;20582;-49
2022/11/11 05:58:02;;;;;;;4.23;3.83;;;4.40;99.90;;;;;;5051727;28;20578;-49
2022/11/11 06:00:29;;;;;;;3.30;3.10;;;4.40;99.90;;;;;;5039103;28;20216;-49
2022/11/11 06:03:02;;;;;;;4.07;3.78;;;4.30;99.90;;;;;;5044425;28;20509;-47
2022/11/11 06:05:30;;;;;;;4.47;4.18;;;4.30;99.90;;;;;;5036587;28;20441;-48
2022/11/11 06:07:58;;;;;;;4.80;4.37;;;4.30;99.90;;;;;;5036448;28;20202;-48
2022/11/11 06:10:31;;;;;;;5.73;5.20;;;4.40;99.90;;;;;;5047182;28;20214;-47
2022/11/11 06:13:09;;;;;;;6.43;5.80;;;4.30;99.90;;;;;;5051153;28;20211;-49
2022/11/11 06:15:36;;;;;;;5.87;5.30;;;4.40;99.90;;;;;;5040901;28;20239;-49
2022/11/11 06:18:05;;;;;;;7.87;7.23;;;4.40;99.90;;;;;;5038880;28;20231;-49
2022/11/11 06:20:34;;;;;;;9.17;7.80;;;4.30;99.90;;;;;;5044671;28;20216;-48
2022/11/11 06:23:03;;;;;;;14.63;10.90;;;4.30;99.90;;;;;;5037402;28;20254;-48
2022/11/11 06:28:17;;;;;;;11.13;8.40;;;4.30;99.90;;;;;;5042299;28;20214;-49
2022/11/11 06:30:44;;;;;;;12.30;9.57;;;4.40;99.90;;;;;;5046347;28;20623;-49
2022/11/11 06:33:12;;;;;;;6.77;6.17;;;4.40;99.90;;;;;;5040298;28;20199;-49
2022/11/11 06:35:40;;;;;;;6.67;6.07;;;4.40;99.90;;;;;;5049527;28;20291;-48
2022/11/11 06:38:08;;;;;;;7.63;6.93;;;4.40;99.90;;;;;;5044704;28;20236;-49
2022/11/11 06:40:35;;;;;;;8.13;6.93;;;4.30;99.90;;;;;;5045502;28;20208;-48
2022/11/11 06:43:02;;;;;;;7.90;7.30;;;4.30;99.90;;;;;;5037764;28;20842;-48
2022/11/11 06:45:32;;;;;;;6.70;6.20;;;4.30;99.90;;;;;;5048361;28;20717;-49
2022/11/11 06:47:59;;;;;;;8.67;7.87;;;4.30;99.90;;;;;;5041633;28;20749;-49
2022/11/11 06:50:27;;;;;;;7.30;6.70;;;4.30;99.90;;;;;;5042846;28;20258;-49
2022/11/11 06:52:54;;;;;;;8.27;7.57;;;4.40;99.90;;;;;;5041351;28;20290;-48
2022/11/11 06:55:23;;;;;;;5.63;5.17;;;4.50;99.90;;;;;;5037233;28;20633;-48
2022/11/11 06:57:50;;;;;;;6.00;5.47;;;4.50;99.90;;;;;;5047409;28;20237;-49
2022/11/11 07:00:17;;;;;;;4.83;4.53;;;4.60;99.90;;;;;;5041365;28;20290;-48
2022/11/11 07:02:46;;;;;;;5.20;4.83;;;4.70;99.90;;;;;;5048960;28;20253;-49
2022/11/11 07:05:13;;;;;;;5.83;5.33;;;4.70;99.90;;;;;;5045677;28;20310;-48
2022/11/11 07:07:40;;;;;;;5.73;5.10;;;4.80;99.90;;;;;;5045746;28;20669;-50
2022/11/11 07:10:09;;;;;;;4.50;4.10;;;4.80;99.90;;;;;;5050391;28;20608;-48
2022/11/11 07:12:41;;;;;;;5.80;5.30;;;4.90;99.90;;;;;;5042432;28;20620;-48
2022/11/11 07:15:09;;;;;;;6.63;6.00;;;5.00;99.90;;;;;;5048248;28;20215;-49
2022/11/11 07:17:37;;;;;;;8.47;7.43;;;5.00;99.90;;;;;;5042033;28;20199;-48
2022/11/11 07:20:05;;;;;;;11.17;7.40;;;5.40;99.90;;;;;;5049485;28;20225;-48
2022/11/11 07:22:35;;;;;;;11.03;9.17;;;5.50;99.90;;;;;;5038175;28;20208;-48
2022/11/11 07:25:02;;;;;;;10.73;9.50;;;5.40;99.90;;;;;;5041860;28;20216;-49
2022/11/11 07:27:30;;;;;;;9.77;8.87;;;5.40;99.90;;;;;;5044730;28;20246;-49
2022/11/11 07:29:58;;;;;;;10.10;8.83;;;5.50;99.90;;;;;;5042705;28;20198;-50
2022/11/11 07:32:25;;;;;;;10.57;9.27;;;5.60;99.90;;;;;;5049538;28;20235;-49
2022/11/11 07:34:53;;;;;;;12.07;9.23;;;5.70;99.90;;;;;;5048828;28;20210;-50
2022/11/11 07:37:20;;;;;;;11.27;8.53;;;5.80;99.90;;;;;;5049204;28;20221;-49
2022/11/11 07:39:47;;;;;;;9.57;8.57;;;5.90;99.90;;;;;;5036262;28;20217;-48
2022/11/11 07:42:14;;;;;;;9.03;8.20;;;6.00;99.90;;;;;;5030865;28;20647;-49
2022/11/11 07:44:41;;;;;;;9.80;8.90;;;6.10;99.90;;;;;;5043433;28;20204;-49
2022/11/11 07:47:10;;;;;;;10.07;8.57;;;6.30;99.90;;;;;;5047052;28;20228;-49
2022/11/11 07:49:37;;;;;;;16.03;9.00;;;6.50;99.90;;;;;;5049917;28;20195;-48
2022/11/11 07:52:04;;;;;;;10.77;8.07;;;6.70;99.90;;;;;;5049762;28;20217;-48
2022/11/11 07:54:31;;;;;;;7.80;7.00;;;6.80;99.90;;;;;;5049551;28;20198;-49
2022/11/11 07:56:59;;;;;;;8.53;6.63;;;6.90;99.90;;;;;;5037037;28;20222;-48
2022/11/11 07:59:26;;;;;;;9.03;6.77;;;7.00;99.90;;;;;;5030145;28;20227;-48
2022/11/11 08:01:53;;;;;;;8.27;7.23;;;7.10;99.90;;;;;;5034418;28;20216;-48
2022/11/11 08:04:24;;;;;;;8.23;7.43;;;7.10;99.90;;;;;;5030363;28;20200;-50
2022/11/11 08:06:51;;;;;;;11.87;7.53;;;7.10;99.90;;;;;;5046262;28;20277;-49
2022/11/11 08:09:22;;;;;;;9.40;7.50;;;7.10;99.90;;;;;;5042077;28;20358;-49
2022/11/11 08:14:33;;;;;;;9.40;8.43;;;7.20;99.90;;;;;;5042595;28;20215;-50
2022/11/11 08:17:01;;;;;;;16.13;9.03;;;7.20;99.90;;;;;;5040286;28;20231;-49
2022/11/11 08:19:29;;;;;;;10.77;8.07;;;7.20;99.90;;;;;;5050446;28;20230;-49
2022/11/11 08:21:56;;;;;;;13.87;8.33;;;7.30;99.90;;;;;;5055153;28;20211;-50
2022/11/11 08:24:23;;;;;;;9.33;7.80;;;7.40;99.90;;;;;;5055218;28;20203;-49
2022/11/11 08:26:52;;;;;;;9.07;7.00;;;7.40;99.90;;;;;;5055198;28;20250;-48
2022/11/11 08:29:23;;;;;;;10.30;8.27;;;7.50;99.90;;;;;;5055260;28;20202;-49
2022/11/11 08:31:52;;;;;;;13.40;8.37;;;7.70;99.90;;;;;;5055004;28;20580;-49
2022/11/11 08:34:22;;;;;;;11.57;7.00;;;7.80;99.90;;;;;;5054598;28;20218;-49
2022/11/11 08:36:51;;;;;;;9.63;6.73;;;7.80;99.90;;;;;;5054767;28;20227;-49
2022/11/11 08:39:19;;;;;;;7.43;6.60;;;7.90;99.90;;;;;;5055049;28;20232;-50
2022/11/11 08:41:46;;;;;;;8.17;6.40;;;8.00;99.90;;;;;;5055041;28;20204;-48
2022/11/11 08:44:13;;;;;;;7.23;6.20;;;8.20;99.90;;;;;;5054688;28;20209;-50
2022/11/11 08:46:40;;;;;;;6.87;6.17;;;8.40;99.90;;;;;;5055198;28;20266;-50
2022/11/11 08:49:07;;;;;;;7.30;6.13;;;8.50;99.90;;;;;;5054589;28;20200;-48
2022/11/11 08:51:34;;;;;;;6.87;5.83;;;8.70;99.90;;;;;;5054593;28;20257;-49
2022/11/11 08:54:03;;;;;;;6.67;5.43;;;8.80;99.90;;;;;;5054463;28;20203;-48
2022/11/11 08:56:30;;;;;;;7.17;4.93;;;9.00;99.90;;;;;;5054739;28;20283;-49
2022/11/11 08:58:57;;;;;;;6.60;5.57;;;9.00;99.90;;;;;;5054399;28;20243;-48
2022/11/11 09:01:24;;;;;;;6.50;5.77;;;9.00;99.90;;;;;;5054423;28;20204;-48
2022/11/11 09:03:51;;;;;;;6.20;5.53;;;9.00;99.90;;;;;;5053903;28;20632;-49
2022/11/11 09:06:18;;;;;;;6.50;5.90;;;9.10;99.90;;;;;;5054626;28;20227;-50
2022/11/11 09:08:45;;;;;;;6.90;5.73;;;9.20;99.90;;;;;;5054518;28;20204;-49
2022/11/11 09:11:13;;;;;;;6.63;5.97;;;9.30;99.90;;;;;;5054525;28;20206;-48
2022/11/11 09:13:40;;;;;;;6.33;5.70;;;9.40;99.90;;;;;;5054119;28;20207;-49
2022/11/11 09:16:08;;;;;;;5.60;5.03;;;9.60;99.90;;;;;;5054070;28;20224;-48
2022/11/11 09:18:35;;;;;;;6.13;5.53;;;9.70;99.90;;;;;;5053979;28;20230;-49
2022/11/11 09:21:03;;;;;;;5.33;4.93;;;9.90;99.90;;;;;;5054023;28;20204;-49
2022/11/11 09:23:30;;;;;;;5.90;5.03;;;10.00;99.90;;;;;;5054072;28;20703;-50
2022/11/11 09:26:02;;;;;;;6.07;5.30;;;10.00;99.90;;;;;;5054036;28;20224;-49
2022/11/11 09:28:32;;;;;;;7.43;5.60;;;10.20;99.90;;;;;;5053697;28;20673;-49
2022/11/11 09:31:00;;;;;;;7.47;5.00;;;10.30;99.90;;;;;;5054232;28;20215;-50
2022/11/11 09:33:27;;;;;;;6.47;5.50;;;10.50;99.90;;;;;;5054154;28;20208;-49
2022/11/11 09:35:54;;;;;;;5.77;5.27;;;10.50;99.90;;;;;;5054047;28;20228;-48
2022/11/11 09:38:21;;;;;;;6.03;5.63;;;10.50;99.90;;;;;;5053785;28;20697;-49
2022/11/11 09:41:07;;;;;;;5.73;5.23;;;10.60;99.90;;;;;;5053835;28;20228;-49
2022/11/11 09:43:46;;;;;;;7.90;6.17;;;10.50;99.90;;;;;;5053456;28;20208;-49
2022/11/11 09:46:34;;;;;;;6.60;6.00;;;10.50;99.90;;;;;;5053523;28;20744;-49
2022/11/11 09:49:36;;;;;;;7.63;6.23;;;10.40;99.90;;;;;;5053858;28;20218;-49
2022/11/11 09:52:11;;;;;;;6.53;6.03;;;10.40;99.90;;;;;;5053509;28;20204;-49
2022/11/11 09:54:44;;;;;;;7.07;6.47;;;10.50;99.90;;;;;;5053367;28;20234;-50
2022/11/11 09:57:18;;;;;;;8.10;7.23;;;10.40;99.90;;;;;;5053818;28;20227;-48
2022/11/11 09:59:50;;;;;;;6.73;6.13;;;10.30;99.90;;;;;;5052936;28;20696;-48
2022/11/11 10:02:26;;;;;;;9.70;7.17;;;10.50;99.90;;;;;;5045976;28;20205;-50
2022/11/11 10:05:00;;;;;;;7.27;6.17;;;10.50;99.90;;;;;;5041127;28;20704;-50
2022/11/11 10:07:36;;;;;;;5.70;5.20;;;10.60;99.90;;;;;;5033494;28;20222;-49
2022/11/11 10:10:11;;;;;;;6.80;6.17;;;10.70;99.90;;;;;;5033363;28;20738;-50
2022/11/11 10:12:46;;;;;;;7.43;6.73;;;11.00;99.90;;;;;;5040324;28;20206;-49
2022/11/11 10:15:16;;;;;;;8.63;7.27;;;11.10;99.90;;;;;;5053095;28;20668;-50
2022/11/11 10:17:54;;;;;;;8.17;7.47;;;11.30;99.90;;;;;;5053247;28;20207;-49
2022/11/11 10:20:26;;;;;;;8.67;7.90;;;11.50;99.90;;;;;;5052414;28;20834;-49
2022/11/11 10:23:00;;;;;;;8.00;7.37;;;11.60;99.90;;;;;;5042856;28;20205;-50
2022/11/11 10:25:28;;;;;;;7.67;7.07;;;11.70;99.90;;;;;;5033155;28;20225;-49
2022/11/11 10:27:59;;;;;;;6.83;6.23;;;11.70;99.90;;;;;;5033073;28;20209;-50
2022/11/11 10:30:29;;;;;;;8.07;6.70;;;12.10;99.90;;;;;;5051250;28;20254;-49
2022/11/11 10:33:01;;;;;;;7.57;6.80;;;11.70;99.90;;;;;;5052229;28;20609;-48
2022/11/11 10:35:30;;;;;;;8.83;7.17;;;11.70;99.90;;;;;;5043671;28;20226;-49
2022/11/11 10:38:06;;;;;;;9.40;7.73;;;11.60;99.90;;;;;;5033500;28;20204;-49
2022/11/11 10:40:41;;;;;;;10.13;7.60;;;11.50;99.90;;;;;;5032131;28;20275;-50
2022/11/11 10:43:23;;;;;;;7.97;7.23;;;11.40;99.90;;;;;;5047355;28;20358;-49
2022/11/11 10:46:01;;;;;;;7.73;6.93;;;11.50;99.90;;;;;;5049250;28;20725;-49
2022/11/11 10:48:37;;;;;;;8.90;7.47;;;11.60;99.90;;;;;;5052628;28;20212;-49
2022/11/11 10:51:06;;;;;;;10.23;8.05;;;11.40;99.90;;;;;;5052086;28;20432;-50
2022/11/11 10:53:39;;;;;;;7.37;6.67;;;11.40;99.90;;;;;;5045963;28;20213;-50
2022/11/11 10:56:14;;;;;;;8.83;7.20;;;11.40;99.90;;;;;;5040450;28;20236;-49
2022/11/11 10:58:48;;;;;;;10.63;7.63;;;11.40;99.90;;;;;;5040176;28;20206;-50
2022/11/11 11:01:22;;;;;;;9.23;8.33;;;11.30;99.90;;;;;;5036851;28;20228;-50
2022/11/11 11:03:55;;;;;;;8.60;7.70;;;11.50;99.90;;;;;;5043970;28;20656;-49
2022/11/11 11:06:27;;;;;;;10.37;7.93;;;11.60;99.90;;;;;;5039744;28;20231;-52
2022/11/11 11:08:59;;;;;;;10.73;7.67;;;11.60;99.90;;;;;;5035846;28;20205;-49
2022/11/11 11:11:31;;;;;;;9.47;7.70;;;11.70;99.90;;;;;;5044460;28;20319;-49
2022/11/11 11:14:01;;;;;;;9.07;8.00;;;11.80;99.90;;;;;;5054308;28;20204;-48
2022/11/11 11:16:34;;;;;;;8.77;7.87;;;11.90;99.90;;;;;;5050466;28;20625;-49
2022/11/11 11:19:18;;;;;;;8.00;7.27;;;11.70;99.90;;;;;;5049520;28;20258;-49
2022/11/11 11:21:53;;;;;;;9.70;8.33;;;11.70;99.90;;;;;;5045709;28;20261;-48
2022/11/11 11:24:26;;;;;;;9.40;8.30;;;11.60;99.90;;;;;;5045856;28;20247;-49
2022/11/11 11:26:55;;;;;;;9.80;8.10;;;11.70;99.90;;;;;;5043310;28;20231;-49
2022/11/11 11:29:28;;;;;;;10.77;8.17;;;11.70;99.90;;;;;;5044658;28;20409;-49
2022/11/11 11:32:10;;;;;;;9.63;7.23;;;11.60;99.90;;;;;;5041552;28;20201;-49
2022/11/11 11:34:47;;;;;;;9.87;8.87;;;11.60;99.90;;;;;;5038346;28;20201;-49
2022/11/11 11:37:14;;;;;;;9.13;8.33;;;11.60;99.90;;;;;;5039610;28;20220;-49
2022/11/11 11:39:41;;;;;;;9.73;8.50;;;11.60;99.90;;;;;;5031080;28;20239;-48
2022/11/11 11:42:26;;;;;;;10.27;8.03;;;11.60;99.90;;;;;;5046110;28;20548;-50
2022/11/11 11:44:53;;;;;;;10.10;8.07;;;11.40;99.90;;;;;;5044646;28;20280;-49
2022/11/11 11:47:35;;;;;;;8.87;7.97;;;11.50;99.90;;;;;;5042635;28;20229;-49
2022/11/11 11:50:23;;;;;;;10.17;9.23;;;11.50;99.90;;;;;;5050304;28;20267;-48
2022/11/11 11:52:59;;;;;;;8.45;7.65;;;11.50;99.90;;;;;;5038309;28;20487;-49
2022/11/11 11:55:31;;;;;;;9.40;8.27;;;11.60;99.90;;;;;;5030394;28;20315;-50
2022/11/11 11:58:13;;;;;;;8.37;7.50;;;11.70;99.90;;;;;;5035432;28;20213;-49
2022/11/11 12:00:46;;;;;;;9.40;8.30;;;11.60;99.90;;;;;;5039324;28;20315;-48
2022/11/11 12:03:55;;;;;;;11.53;8.33;;;11.60;99.90;;;;;;5047230;28;20741;-48
2022/11/11 12:06:29;;;;;;;11.00;9.37;;;11.60;99.90;;;;;;5047510;28;20224;-49
2022/11/11 12:09:07;;;;;;;11.63;10.00;;;11.60;99.90;;;;;;5049264;28;20261;-49
2022/11/11 12:11:41;;;;;;;9.83;8.83;;;11.70;99.90;;;;;;5049400;28;20194;-48
2022/11/11 12:14:32;;;;;;;9.53;8.27;;;11.70;99.90;;;;;;5045492;28;20209;-50
2022/11/11 12:17:08;;;;;;;11.27;8.90;;;11.70;99.90;;;;;;5039932;28;20289;-49
2022/11/11 12:19:48;;;;;;;10.17;9.07;;;11.60;99.90;;;;;;5048680;28;20254;-49
2022/11/11 12:22:33;;;;;;;11.67;9.67;;;11.40;99.90;;;;;;5047721;28;20216;-48
2022/11/11 12:25:11;;;;;;;13.87;9.20;;;11.40;99.90;;;;;;5048404;28;20204;-49
2022/11/11 12:27:48;;;;;;;12.80;9.20;;;11.30;99.90;;;;;;5048684;28;20199;-48
2022/11/11 12:30:19;;;;;;;11.93;9.93;;;11.40;99.90;;;;;;5044749;28;20290;-50
2022/11/11 12:33:20;;;;;;;12.00;9.60;;;11.40;99.90;;;;;;5039326;28;20232;-49
2022/11/11 12:36:01;;;;;;;13.27;9.23;;;11.40;99.90;;;;;;5045945;28;20251;-50
2022/11/11 12:38:57;;;;;;;13.17;10.33;;;11.30;99.90;;;;;;5049406;28;20199;-50
2022/11/11 12:41:40;;;;;;;13.97;10.40;;;11.40;99.90;;;;;;5047896;28;20231;-49
2022/11/11 12:44:09;;;;;;;13.33;10.33;;;11.30;99.90;;;;;;5044354;28;20208;-49
2022/11/11 12:46:57;;;;;;;15.10;10.53;;;11.20;99.90;;;;;;5044610;28;20227;-48
2022/11/11 12:49:40;;;;;;;10.63;9.03;;;11.30;99.90;;;;;;5044396;28;20190;-49
2022/11/11 12:52:27;;;;;;;13.47;9.87;;;11.30;99.90;;;;;;5047404;28;20346;-48
2022/11/11 12:55:12;;;;;;;12.70;10.10;;;11.30;99.90;;;;;;5048771;28;20192;-49
2022/11/11 12:57:47;;;;;;;12.83;9.97;;;11.30;99.90;;;;;;5030015;28;20230;-48
2022/11/11 13:00:19;;;;;;;13.27;9.73;;;11.30;99.90;;;;;;5044527;28;20220;-48
2022/11/11 13:03:06;;;;;;;14.60;11.17;;;11.10;99.90;;;;;;5046049;28;20196;-48
2022/11/11 13:05:38;;;;;;;15.27;10.87;;;10.90;99.90;;;;;;5050395;28;20254;-49
2022/11/11 13:08:27;;;;;;;17.27;10.87;;;10.90;99.90;;;;;;5043974;28;20267;-48
2022/11/11 13:11:01;;;;;;;13.70;10.70;;;10.70;99.90;;;;;;5033529;28;20264;-48
2022/11/11 13:13:41;;;;;;;18.90;12.50;;;10.70;99.90;;;;;;5033039;28;20200;-48
2022/11/11 13:16:09;;;;;;;16.40;9.63;;;10.60;99.90;;;;;;5048092;28;20213;-49
2022/11/11 13:18:49;;;;;;;14.10;10.17;;;10.60;99.90;;;;;;5043961;28;20200;-49
2022/11/11 13:21:21;;;;;;;17.07;11.50;;;10.70;99.90;;;;;;5052253;28;20228;-48
2022/11/11 13:23:50;;;;;;;15.83;10.87;;;10.80;99.90;;;;;;5051996;28;20200;-49
2022/11/11 13:26:29;;;;;;;15.93;10.90;;;10.80;99.90;;;;;;5034569;28;20224;-48
2022/11/11 13:29:14;;;;;;;17.73;11.53;;;10.70;99.90;;;;;;5033254;28;20193;-49
2022/11/11 13:31:44;;;;;;;16.27;11.07;;;10.80;99.90;;;;;;5032954;28;20193;-48
2022/11/11 13:34:13;;;;;;;14.80;11.63;;;10.90;99.90;;;;;;5038946;28;20211;-48
2022/11/11 13:36:46;;;;;;;15.70;11.60;;;11.00;99.90;;;;;;5049529;28;20302;-48
2022/11/11 13:39:28;;;;;;;15.73;12.30;;;11.00;99.90;;;;;;5051347;28;20208;-49
2022/11/11 13:41:57;;;;;;;14.67;10.37;;;10.90;99.90;;;;;;5051076;28;20307;-50
2022/11/11 13:44:28;;;;;;;15.60;12.30;;;10.80;99.90;;;;;;5051021;28;20702;-49
2022/11/11 13:47:03;;;;;;;21.50;12.47;;;10.70;99.90;;;;;;5051032;28;20231;-48
2022/11/11 13:49:35;;;;;;;14.40;10.47;;;10.70;99.90;;;;;;5050534;28;20286;-49
2022/11/11 13:52:04;;;;;;;14.07;11.20;;;10.70;99.90;;;;;;5051646;28;20273;-49
2022/11/11 13:54:36;;;;;;;17.23;12.10;;;10.60;99.90;;;;;;5032489;28;20208;-49
2022/11/11 13:57:07;;;;;;;16.47;11.13;;;10.70;99.90;;;;;;5032576;28;20271;-49
2022/11/11 13:59:38;;;;;;;15.63;11.40;;;10.60;99.90;;;;;;5048281;28;20261;-50
2022/11/11 14:02:35;;;;;;;13.63;11.70;;;10.50;99.90;;;;;;5051087;28;20236;-49
2022/11/11 14:05:26;;;;;;;13.83;10.70;;;10.40;99.90;;;;;;5042211;28;20200;-48
2022/11/11 14:07:56;;;;;;;18.40;11.53;;;10.30;99.90;;;;;;5027999;28;20231;-48
2022/11/11 14:10:51;;;;;;;13.77;9.97;;;10.20;99.90;;;;;;5052013;28;20208;-48
2022/11/11 14:13:41;;;;;;;13.47;10.37;;;10.30;99.90;;;;;;5051924;28;21006;-49
2022/11/11 14:16:52;;;;;;;15.73;11.53;;;10.30;99.90;;;;;;5044897;28;20223;-49
2022/11/11 14:19:31;;;;;;;13.90;10.03;;;10.30;99.90;;;;;;5054185;28;20232;-48
2022/11/11 14:22:00;;;;;;;15.73;11.10;;;10.30;99.90;;;;;;5067714;28;20247;-50
2022/11/11 14:24:35;;;;;;;17.60;13.07;;;10.30;99.90;;;;;;5062391;28;20213;-48
2022/11/11 14:27:14;;;;;;;15.83;11.20;;;10.20;99.90;;;;;;5059971;28;20703;-49
2022/11/11 14:29:49;;;;;;;18.83;13.27;;;10.20;99.90;;;;;;5068167;28;20231;-48
2022/11/11 14:32:43;;;;;;;18.77;11.43;;;10.20;99.90;;;;;;5067020;28;20303;-51